sensor_id;sensor_type;location;lat;lon;timestamp;P1;durP1;ratioP1;P2;durP2;ratioP2
17564;SDS011;62994;52.126;5.596;2023-05-09T00:01:18;41.50;;;26.88;;
17564;SDS011;62994;52.126;5.596;2023-05-09T00:03:53;41.47;;;25.58;;
17564;SDS011;62994;52.126;5.596;2023-05-09T00:06:20;47.13;;;27.08;;
17564;SDS011;62994;52.126;5.596;2023-05-09T00:08:51;41.08;;;26.00;;
17564;SDS011;62994;52.126;5.596;2023-05-09T00:11:18;42.40;;;25.83;;
17564;SDS011;62994;52.126;5.596;2023-05-09T00:13:46;45.03;;;26.90;;
17564;SDS011;62994;52.126;5.596;2023-05-09T00:16:13;45.13;;;26.75;;
17564;SDS011;62994;52.126;5.596;2023-05-09T00:18:41;42.50;;;26.38;;
17564;SDS011;62994;52.126;5.596;2023-05-09T00:21:11;48.83;;;28.30;;
17564;SDS011;62994;52.126;5.596;2023-05-09T00:23:38;47.22;;;27.02;;
17564;SDS011;62994;52.126;5.596;2023-05-09T00:26:08;39.10;;;25.90;;
17564;SDS011;62994;52.126;5.596;2023-05-09T00:28:38;45.45;;;27.10;;
17564;SDS011;62994;52.126;5.596;2023-05-09T00:31:15;41.60;;;26.08;;
17564;SDS011;62994;52.126;5.596;2023-05-09T00:33:46;39.45;;;24.98;;
17564;SDS011;62994;52.126;5.596;2023-05-09T00:36:14;38.53;;;24.80;;
17564;SDS011;62994;52.126;5.596;2023-05-09T00:38:47;37.63;;;25.20;;
17564;SDS011;62994;52.126;5.596;2023-05-09T00:41:14;39.80;;;25.10;;
17564;SDS011;62994;52.126;5.596;2023-05-09T00:43:41;42.20;;;24.65;;
17564;SDS011;62994;52.126;5.596;2023-05-09T00:46:10;44.13;;;26.77;;
17564;SDS011;62994;52.126;5.596;2023-05-09T00:48:39;45.13;;;26.30;;
17564;SDS011;62994;52.126;5.596;2023-05-09T00:51:12;40.88;;;25.73;;
17564;SDS011;62994;52.126;5.596;2023-05-09T00:53:41;44.53;;;26.10;;
17564;SDS011;62994;52.126;5.596;2023-05-09T00:56:08;45.42;;;26.48;;
17564;SDS011;62994;52.126;5.596;2023-05-09T00:58:38;45.28;;;27.40;;
17564;SDS011;62994;52.126;5.596;2023-05-09T01:01:14;45.55;;;27.70;;
17564;SDS011;62994;52.126;5.596;2023-05-09T01:03:42;44.53;;;26.15;;
17564;SDS011;62994;52.126;5.596;2023-05-09T01:06:10;47.85;;;27.15;;
17564;SDS011;62994;52.126;5.596;2023-05-09T01:08:56;42.30;;;25.42;;
17564;SDS011;62994;52.126;5.596;2023-05-09T01:11:29;45.97;;;26.17;;
17564;SDS011;62994;52.126;5.596;2023-05-09T01:14:11;44.92;;;27.42;;
17564;SDS011;62994;52.126;5.596;2023-05-09T01:16:58;46.03;;;26.88;;
17564;SDS011;62994;52.126;5.596;2023-05-09T01:19:35;45.63;;;27.90;;
17564;SDS011;62994;52.126;5.596;2023-05-09T01:22:22;41.40;;;25.55;;
17564;SDS011;62994;52.126;5.596;2023-05-09T01:25:06;41.38;;;26.30;;
17564;SDS011;62994;52.126;5.596;2023-05-09T01:27:47;44.47;;;27.02;;
17564;SDS011;62994;52.126;5.596;2023-05-09T01:30:20;42.50;;;26.35;;
17564;SDS011;62994;52.126;5.596;2023-05-09T01:32:48;40.50;;;25.08;;
17564;SDS011;62994;52.126;5.596;2023-05-09T01:35:17;40.78;;;25.25;;
17564;SDS011;62994;52.126;5.596;2023-05-09T01:37:48;43.00;;;25.52;;
17564;SDS011;62994;52.126;5.596;2023-05-09T01:40:18;41.08;;;25.13;;
17564;SDS011;62994;52.126;5.596;2023-05-09T01:42:51;39.83;;;25.33;;
17564;SDS011;62994;52.126;5.596;2023-05-09T01:45:28;41.75;;;26.05;;
17564;SDS011;62994;52.126;5.596;2023-05-09T01:48:02;44.17;;;26.27;;
17564;SDS011;62994;52.126;5.596;2023-05-09T01:50:31;44.03;;;25.92;;
17564;SDS011;62994;52.126;5.596;2023-05-09T01:53:05;44.55;;;25.65;;
17564;SDS011;62994;52.126;5.596;2023-05-09T01:55:33;42.00;;;25.80;;
17564;SDS011;62994;52.126;5.596;2023-05-09T01:58:02;38.05;;;24.23;;
17564;SDS011;62994;52.126;5.596;2023-05-09T02:00:32;42.78;;;25.35;;
17564;SDS011;62994;52.126;5.596;2023-05-09T02:03:00;46.97;;;26.38;;
17564;SDS011;62994;52.126;5.596;2023-05-09T02:05:28;41.80;;;25.75;;
17564;SDS011;62994;52.126;5.596;2023-05-09T02:07:56;40.88;;;25.33;;
17564;SDS011;62994;52.126;5.596;2023-05-09T02:10:23;44.85;;;26.33;;
17564;SDS011;62994;52.126;5.596;2023-05-09T02:12:52;39.70;;;24.67;;
17564;SDS011;62994;52.126;5.596;2023-05-09T02:15:19;41.92;;;25.92;;
17564;SDS011;62994;52.126;5.596;2023-05-09T02:17:48;42.03;;;25.20;;
17564;SDS011;62994;52.126;5.596;2023-05-09T02:20:15;42.85;;;25.15;;
17564;SDS011;62994;52.126;5.596;2023-05-09T02:22:44;46.47;;;26.08;;
17564;SDS011;62994;52.126;5.596;2023-05-09T02:25:14;43.35;;;27.10;;
17564;SDS011;62994;52.126;5.596;2023-05-09T02:27:45;42.55;;;25.02;;
17564;SDS011;62994;52.126;5.596;2023-05-09T02:30:17;40.65;;;25.08;;
17564;SDS011;62994;52.126;5.596;2023-05-09T02:32:49;42.40;;;25.63;;
17564;SDS011;62994;52.126;5.596;2023-05-09T02:35:18;44.15;;;26.13;;
17564;SDS011;62994;52.126;5.596;2023-05-09T02:37:50;43.70;;;26.90;;
17564;SDS011;62994;52.126;5.596;2023-05-09T02:40:17;46.33;;;26.33;;
17564;SDS011;62994;52.126;5.596;2023-05-09T02:42:45;43.38;;;25.95;;
17564;SDS011;62994;52.126;5.596;2023-05-09T02:45:17;45.15;;;26.45;;
17564;SDS011;62994;52.126;5.596;2023-05-09T02:47:44;46.17;;;27.20;;
17564;SDS011;62994;52.126;5.596;2023-05-09T02:50:12;46.83;;;26.33;;
17564;SDS011;62994;52.126;5.596;2023-05-09T02:52:40;43.20;;;25.63;;
17564;SDS011;62994;52.126;5.596;2023-05-09T02:55:08;43.53;;;25.83;;
17564;SDS011;62994;52.126;5.596;2023-05-09T02:57:38;45.88;;;28.08;;
17564;SDS011;62994;52.126;5.596;2023-05-09T03:00:08;44.20;;;27.08;;
17564;SDS011;62994;52.126;5.596;2023-05-09T03:02:35;40.35;;;25.92;;
17564;SDS011;62994;52.126;5.596;2023-05-09T03:05:07;46.35;;;27.98;;
17564;SDS011;62994;52.126;5.596;2023-05-09T03:07:36;46.40;;;27.90;;
17564;SDS011;62994;52.126;5.596;2023-05-09T03:10:03;45.08;;;26.98;;
17564;SDS011;62994;52.126;5.596;2023-05-09T03:12:32;46.08;;;27.98;;
17564;SDS011;62994;52.126;5.596;2023-05-09T03:14:59;43.33;;;27.00;;
17564;SDS011;62994;52.126;5.596;2023-05-09T03:17:30;44.42;;;26.10;;
17564;SDS011;62994;52.126;5.596;2023-05-09T03:20:02;47.42;;;27.92;;
17564;SDS011;62994;52.126;5.596;2023-05-09T03:22:32;44.40;;;27.15;;
17564;SDS011;62994;52.126;5.596;2023-05-09T03:25:00;48.83;;;28.02;;
17564;SDS011;62994;52.126;5.596;2023-05-09T03:27:33;45.65;;;27.25;;
17564;SDS011;62994;52.126;5.596;2023-05-09T03:30:21;48.30;;;26.85;;
17564;SDS011;62994;52.126;5.596;2023-05-09T03:32:48;43.15;;;26.45;;
17564;SDS011;62994;52.126;5.596;2023-05-09T03:35:15;47.45;;;26.90;;
17564;SDS011;62994;52.126;5.596;2023-05-09T03:37:42;47.65;;;28.20;;
17564;SDS011;62994;52.126;5.596;2023-05-09T03:40:15;45.10;;;26.88;;
17564;SDS011;62994;52.126;5.596;2023-05-09T03:42:42;46.95;;;25.83;;
17564;SDS011;62994;52.126;5.596;2023-05-09T03:45:19;49.25;;;27.65;;
17564;SDS011;62994;52.126;5.596;2023-05-09T03:47:46;49.78;;;26.92;;
17564;SDS011;62994;52.126;5.596;2023-05-09T03:50:13;51.78;;;27.75;;
17564;SDS011;62994;52.126;5.596;2023-05-09T03:52:40;49.80;;;28.20;;
17564;SDS011;62994;52.126;5.596;2023-05-09T03:55:08;46.85;;;28.38;;
17564;SDS011;62994;52.126;5.596;2023-05-09T03:57:45;50.83;;;28.83;;
17564;SDS011;62994;52.126;5.596;2023-05-09T04:00:12;47.58;;;26.48;;
17564;SDS011;62994;52.126;5.596;2023-05-09T04:02:44;43.90;;;26.88;;
17564;SDS011;62994;52.126;5.596;2023-05-09T04:05:11;41.45;;;24.75;;
17564;SDS011;62994;52.126;5.596;2023-05-09T04:07:42;41.20;;;24.65;;
17564;SDS011;62994;52.126;5.596;2023-05-09T04:10:10;41.00;;;24.63;;
17564;SDS011;62994;52.126;5.596;2023-05-09T04:12:38;40.10;;;23.42;;
17564;SDS011;62994;52.126;5.596;2023-05-09T04:15:07;38.20;;;24.05;;
17564;SDS011;62994;52.126;5.596;2023-05-09T04:17:41;34.47;;;22.20;;
17564;SDS011;62994;52.126;5.596;2023-05-09T04:20:09;32.92;;;21.35;;
17564;SDS011;62994;52.126;5.596;2023-05-09T04:22:37;36.63;;;22.08;;
17564;SDS011;62994;52.126;5.596;2023-05-09T04:25:09;35.60;;;20.98;;
17564;SDS011;62994;52.126;5.596;2023-05-09T04:27:45;30.67;;;19.35;;
17564;SDS011;62994;52.126;5.596;2023-05-09T04:30:20;26.38;;;18.83;;
17564;SDS011;62994;52.126;5.596;2023-05-09T04:32:47;28.83;;;19.55;;
17564;SDS011;62994;52.126;5.596;2023-05-09T04:35:19;25.15;;;18.63;;
17564;SDS011;62994;52.126;5.596;2023-05-09T04:37:47;32.78;;;19.73;;
17564;SDS011;62994;52.126;5.596;2023-05-09T04:40:14;25.63;;;18.27;;
17564;SDS011;62994;52.126;5.596;2023-05-09T04:42:47;27.10;;;18.90;;
17564;SDS011;62994;52.126;5.596;2023-05-09T04:45:20;26.48;;;18.83;;
17564;SDS011;62994;52.126;5.596;2023-05-09T04:47:47;32.10;;;19.48;;
17564;SDS011;62994;52.126;5.596;2023-05-09T04:50:15;24.90;;;17.10;;
17564;SDS011;62994;52.126;5.596;2023-05-09T04:52:42;22.60;;;17.77;;
17564;SDS011;62994;52.126;5.596;2023-05-09T04:55:09;29.52;;;18.73;;
17564;SDS011;62994;52.126;5.596;2023-05-09T04:57:44;24.23;;;18.23;;
17564;SDS011;62994;52.126;5.596;2023-05-09T05:00:14;25.77;;;18.88;;
17564;SDS011;62994;52.126;5.596;2023-05-09T05:02:47;21.42;;;17.25;;
17564;SDS011;62994;52.126;5.596;2023-05-09T05:05:14;30.48;;;19.20;;
17564;SDS011;62994;52.126;5.596;2023-05-09T05:07:46;28.08;;;16.85;;
17564;SDS011;62994;52.126;5.596;2023-05-09T05:10:18;31.25;;;17.42;;
17564;SDS011;62994;52.126;5.596;2023-05-09T05:12:46;23.80;;;16.85;;
17564;SDS011;62994;52.126;5.596;2023-05-09T05:15:22;25.70;;;16.38;;
17564;SDS011;62994;52.126;5.596;2023-05-09T05:17:50;24.15;;;16.30;;
17564;SDS011;62994;52.126;5.596;2023-05-09T05:20:19;22.55;;;16.45;;
17564;SDS011;62994;52.126;5.596;2023-05-09T05:22:46;24.70;;;16.58;;
17564;SDS011;62994;52.126;5.596;2023-05-09T05:25:14;20.52;;;16.25;;
17564;SDS011;62994;52.126;5.596;2023-05-09T05:27:49;28.30;;;17.00;;
17564;SDS011;62994;52.126;5.596;2023-05-09T05:30:21;22.95;;;16.52;;
17564;SDS011;62994;52.126;5.596;2023-05-09T05:32:55;23.25;;;16.50;;
17564;SDS011;62994;52.126;5.596;2023-05-09T05:35:28;24.00;;;16.52;;
17564;SDS011;62994;52.126;5.596;2023-05-09T05:37:55;17.77;;;15.80;;
17564;SDS011;62994;52.126;5.596;2023-05-09T05:40:22;20.88;;;16.27;;
17564;SDS011;62994;52.126;5.596;2023-05-09T05:42:50;20.63;;;15.85;;
17564;SDS011;62994;52.126;5.596;2023-05-09T05:45:20;23.23;;;17.05;;
17564;SDS011;62994;52.126;5.596;2023-05-09T05:47:47;27.02;;;16.65;;
17564;SDS011;62994;52.126;5.596;2023-05-09T05:50:21;20.95;;;15.60;;
17564;SDS011;62994;52.126;5.596;2023-05-09T05:52:57;25.70;;;16.83;;
17564;SDS011;62994;52.126;5.596;2023-05-09T05:55:29;26.95;;;15.40;;
17564;SDS011;62994;52.126;5.596;2023-05-09T05:58:00;23.23;;;15.23;;
17564;SDS011;62994;52.126;5.596;2023-05-09T06:00:32;21.73;;;16.13;;
17564;SDS011;62994;52.126;5.596;2023-05-09T06:03:01;17.52;;;14.27;;
17564;SDS011;62994;52.126;5.596;2023-05-09T06:05:33;20.80;;;15.35;;
17564;SDS011;62994;52.126;5.596;2023-05-09T06:08:07;20.58;;;15.30;;
17564;SDS011;62994;52.126;5.596;2023-05-09T06:10:39;20.13;;;15.13;;
17564;SDS011;62994;52.126;5.596;2023-05-09T06:13:07;16.05;;;14.30;;
17564;SDS011;62994;52.126;5.596;2023-05-09T06:15:34;15.40;;;13.73;;
17564;SDS011;62994;52.126;5.596;2023-05-09T06:18:11;19.90;;;15.10;;
17564;SDS011;62994;52.126;5.596;2023-05-09T06:20:43;19.48;;;14.43;;
17564;SDS011;62994;52.126;5.596;2023-05-09T06:23:10;20.17;;;13.95;;
17564;SDS011;62994;52.126;5.596;2023-05-09T06:25:43;17.95;;;14.30;;
17564;SDS011;62994;52.126;5.596;2023-05-09T06:28:16;18.88;;;14.00;;
17564;SDS011;62994;52.126;5.596;2023-05-09T06:30:49;19.98;;;14.45;;
17564;SDS011;62994;52.126;5.596;2023-05-09T06:33:18;23.25;;;15.40;;
17564;SDS011;62994;52.126;5.596;2023-05-09T06:35:50;19.23;;;14.77;;
17564;SDS011;62994;52.126;5.596;2023-05-09T06:38:25;16.40;;;13.88;;
17564;SDS011;62994;52.126;5.596;2023-05-09T06:40:55;15.05;;;13.55;;
17564;SDS011;62994;52.126;5.596;2023-05-09T06:43:23;19.95;;;14.93;;
17564;SDS011;62994;52.126;5.596;2023-05-09T06:45:56;15.40;;;13.50;;
17564;SDS011;62994;52.126;5.596;2023-05-09T06:48:23;19.05;;;13.63;;
17564;SDS011;62994;52.126;5.596;2023-05-09T06:50:50;13.13;;;11.80;;
17564;SDS011;62994;52.126;5.596;2023-05-09T06:53:20;16.20;;;13.90;;
17564;SDS011;62994;52.126;5.596;2023-05-09T06:55:47;19.88;;;13.82;;
17564;SDS011;62994;52.126;5.596;2023-05-09T06:58:16;19.33;;;13.23;;
17564;SDS011;62994;52.126;5.596;2023-05-09T07:00:44;16.48;;;12.80;;
17564;SDS011;62994;52.126;5.596;2023-05-09T07:03:12;15.13;;;12.70;;
17564;SDS011;62994;52.126;5.596;2023-05-09T07:05:40;15.18;;;12.48;;
17564;SDS011;62994;52.126;5.596;2023-05-09T07:08:09;14.38;;;12.50;;
17564;SDS011;62994;52.126;5.596;2023-05-09T07:10:36;15.52;;;13.15;;
17564;SDS011;62994;52.126;5.596;2023-05-09T07:13:05;13.68;;;12.27;;
17564;SDS011;62994;52.126;5.596;2023-05-09T07:15:34;13.98;;;11.98;;
17564;SDS011;62994;52.126;5.596;2023-05-09T07:18:04;14.05;;;12.18;;
17564;SDS011;62994;52.126;5.596;2023-05-09T07:20:39;13.68;;;12.10;;
17564;SDS011;62994;52.126;5.596;2023-05-09T07:23:12;15.02;;;13.00;;
17564;SDS011;62994;52.126;5.596;2023-05-09T07:25:45;13.10;;;11.80;;
17564;SDS011;62994;52.126;5.596;2023-05-09T07:28:25;13.85;;;12.57;;
17564;SDS011;62994;52.126;5.596;2023-05-09T07:30:54;12.35;;;11.27;;
17564;SDS011;62994;52.126;5.596;2023-05-09T07:33:22;12.68;;;11.52;;
17564;SDS011;62994;52.126;5.596;2023-05-09T07:35:54;13.93;;;11.57;;
17564;SDS011;62994;52.126;5.596;2023-05-09T07:38:23;12.38;;;11.43;;
17564;SDS011;62994;52.126;5.596;2023-05-09T07:40:56;13.00;;;11.65;;
17564;SDS011;62994;52.126;5.596;2023-05-09T07:43:28;13.82;;;12.45;;
17564;SDS011;62994;52.126;5.596;2023-05-09T07:45:57;13.23;;;11.93;;
17564;SDS011;62994;52.126;5.596;2023-05-09T07:48:29;12.65;;;11.63;;
17564;SDS011;62994;52.126;5.596;2023-05-09T07:51:01;13.02;;;11.90;;
17564;SDS011;62994;52.126;5.596;2023-05-09T07:53:28;13.00;;;11.82;;
17564;SDS011;62994;52.126;5.596;2023-05-09T07:56:08;12.07;;;11.07;;
17564;SDS011;62994;52.126;5.596;2023-05-09T07:58:35;12.48;;;11.23;;
17564;SDS011;62994;52.126;5.596;2023-05-09T08:01:06;12.88;;;11.77;;
17564;SDS011;62994;52.126;5.596;2023-05-09T08:03:35;13.98;;;12.38;;
17564;SDS011;62994;52.126;5.596;2023-05-09T08:06:02;11.85;;;10.75;;
17564;SDS011;62994;52.126;5.596;2023-05-09T08:08:31;12.90;;;11.20;;
17564;SDS011;62994;52.126;5.596;2023-05-09T08:11:05;12.40;;;11.27;;
17564;SDS011;62994;52.126;5.596;2023-05-09T08:13:37;12.23;;;11.13;;
17564;SDS011;62994;52.126;5.596;2023-05-09T08:16:11;13.02;;;11.75;;
17564;SDS011;62994;52.126;5.596;2023-05-09T08:18:39;11.98;;;11.00;;
17564;SDS011;62994;52.126;5.596;2023-05-09T08:21:11;10.95;;;10.23;;
17564;SDS011;62994;52.126;5.596;2023-05-09T08:23:38;11.82;;;10.32;;
17564;SDS011;62994;52.126;5.596;2023-05-09T08:26:11;11.82;;;10.40;;
17564;SDS011;62994;52.126;5.596;2023-05-09T08:28:43;11.20;;;10.23;;
17564;SDS011;62994;52.126;5.596;2023-05-09T08:31:19;10.90;;;10.20;;
17564;SDS011;62994;52.126;5.596;2023-05-09T08:33:48;11.32;;;10.15;;
17564;SDS011;62994;52.126;5.596;2023-05-09T08:36:21;12.38;;;11.38;;
17564;SDS011;62994;52.126;5.596;2023-05-09T08:38:49;11.10;;;10.07;;
17564;SDS011;62994;52.126;5.596;2023-05-09T08:41:21;11.70;;;10.65;;
17564;SDS011;62994;52.126;5.596;2023-05-09T08:43:53;11.65;;;10.57;;
17564;SDS011;62994;52.126;5.596;2023-05-09T08:46:26;11.05;;;9.95;;
17564;SDS011;62994;52.126;5.596;2023-05-09T08:49:01;9.75;;;9.05;;
17564;SDS011;62994;52.126;5.596;2023-05-09T08:51:31;9.38;;;8.77;;
17564;SDS011;62994;52.126;5.596;2023-05-09T08:53:58;10.27;;;9.48;;
17564;SDS011;62994;52.126;5.596;2023-05-09T08:56:28;10.50;;;9.60;;
17564;SDS011;62994;52.126;5.596;2023-05-09T08:58:55;9.60;;;8.93;;
17564;SDS011;62994;52.126;5.596;2023-05-09T09:01:23;10.55;;;9.75;;
17564;SDS011;62994;52.126;5.596;2023-05-09T09:03:55;10.98;;;10.15;;
17564;SDS011;62994;52.126;5.596;2023-05-09T09:06:26;10.00;;;9.07;;
17564;SDS011;62994;52.126;5.596;2023-05-09T09:08:57;8.68;;;8.13;;
17564;SDS011;62994;52.126;5.596;2023-05-09T09:11:25;9.10;;;8.50;;
17564;SDS011;62994;52.126;5.596;2023-05-09T09:13:59;9.18;;;8.68;;
17564;SDS011;62994;52.126;5.596;2023-05-09T09:16:27;8.23;;;7.53;;
17564;SDS011;62994;52.126;5.596;2023-05-09T09:18:57;8.10;;;7.60;;
17564;SDS011;62994;52.126;5.596;2023-05-09T09:21:30;8.20;;;7.55;;
17564;SDS011;62994;52.126;5.596;2023-05-09T09:24:07;7.88;;;7.20;;
17564;SDS011;62994;52.126;5.596;2023-05-09T09:26:44;7.65;;;7.05;;
17564;SDS011;62994;52.126;5.596;2023-05-09T09:29:25;8.88;;;8.38;;
17564;SDS011;62994;52.126;5.596;2023-05-09T09:31:56;9.20;;;8.50;;
17564;SDS011;62994;52.126;5.596;2023-05-09T09:34:27;9.52;;;8.60;;
17564;SDS011;62994;52.126;5.596;2023-05-09T09:36:54;8.98;;;8.27;;
17564;SDS011;62994;52.126;5.596;2023-05-09T09:39:21;7.93;;;7.43;;
17564;SDS011;62994;52.126;5.596;2023-05-09T09:41:49;8.27;;;7.78;;
17564;SDS011;62994;52.126;5.596;2023-05-09T09:44:16;9.88;;;8.32;;
17564;SDS011;62994;52.126;5.596;2023-05-09T09:46:45;8.77;;;8.25;;
17564;SDS011;62994;52.126;5.596;2023-05-09T09:49:14;7.80;;;7.40;;
17564;SDS011;62994;52.126;5.596;2023-05-09T09:51:44;8.05;;;7.45;;
17564;SDS011;62994;52.126;5.596;2023-05-09T09:54:14;7.32;;;6.50;;
17564;SDS011;62994;52.126;5.596;2023-05-09T09:56:42;6.88;;;6.47;;
17564;SDS011;62994;52.126;5.596;2023-05-09T09:59:10;6.45;;;6.15;;
17564;SDS011;62994;52.126;5.596;2023-05-09T10:01:55;6.82;;;6.30;;
17564;SDS011;62994;52.126;5.596;2023-05-09T10:04:24;6.63;;;6.32;;
17564;SDS011;62994;52.126;5.596;2023-05-09T10:06:57;6.30;;;5.80;;
17564;SDS011;62994;52.126;5.596;2023-05-09T10:09:30;5.80;;;5.47;;
17564;SDS011;62994;52.126;5.596;2023-05-09T10:12:00;4.70;;;4.50;;
17564;SDS011;62994;52.126;5.596;2023-05-09T10:14:28;4.88;;;4.60;;
17564;SDS011;62994;52.126;5.596;2023-05-09T10:17:01;5.25;;;5.03;;
17564;SDS011;62994;52.126;5.596;2023-05-09T10:19:29;5.43;;;5.07;;
17564;SDS011;62994;52.126;5.596;2023-05-09T10:22:02;5.00;;;4.78;;
17564;SDS011;62994;52.126;5.596;2023-05-09T10:24:32;5.43;;;5.13;;
17564;SDS011;62994;52.126;5.596;2023-05-09T10:27:05;5.32;;;5.03;;
17564;SDS011;62994;52.126;5.596;2023-05-09T10:29:36;5.68;;;5.38;;
17564;SDS011;62994;52.126;5.596;2023-05-09T10:32:14;5.53;;;5.22;;
17564;SDS011;62994;52.126;5.596;2023-05-09T10:34:46;5.05;;;4.85;;
17564;SDS011;62994;52.126;5.596;2023-05-09T10:37:17;6.10;;;5.80;;
17564;SDS011;62994;52.126;5.596;2023-05-09T10:39:46;5.30;;;5.00;;
17564;SDS011;62994;52.126;5.596;2023-05-09T10:42:17;5.55;;;5.25;;
17564;SDS011;62994;52.126;5.596;2023-05-09T10:44:45;6.05;;;5.75;;
17564;SDS011;62994;52.126;5.596;2023-05-09T10:47:18;6.05;;;5.72;;
17564;SDS011;62994;52.126;5.596;2023-05-09T10:49:45;5.82;;;5.53;;
17564;SDS011;62994;52.126;5.596;2023-05-09T10:52:13;6.18;;;5.65;;
17564;SDS011;62994;52.126;5.596;2023-05-09T10:54:45;5.80;;;5.50;;
17564;SDS011;62994;52.126;5.596;2023-05-09T10:57:29;5.00;;;4.70;;
17564;SDS011;62994;52.126;5.596;2023-05-09T10:59:56;5.07;;;4.88;;
17564;SDS011;62994;52.126;5.596;2023-05-09T11:02:24;5.50;;;5.10;;
17564;SDS011;62994;52.126;5.596;2023-05-09T11:05:13;5.75;;;4.53;;
17564;SDS011;62994;52.126;5.596;2023-05-09T11:07:47;5.03;;;4.72;;
17564;SDS011;62994;52.126;5.596;2023-05-09T11:10:50;4.75;;;4.45;;
17564;SDS011;62994;52.126;5.596;2023-05-09T11:13:19;4.63;;;4.43;;
17564;SDS011;62994;52.126;5.596;2023-05-09T11:16:07;4.00;;;3.80;;
17564;SDS011;62994;52.126;5.596;2023-05-09T11:18:48;4.68;;;4.38;;
17564;SDS011;62994;52.126;5.596;2023-05-09T11:21:21;4.57;;;4.28;;
17564;SDS011;62994;52.126;5.596;2023-05-09T11:24:06;4.30;;;4.00;;
17564;SDS011;62994;52.126;5.596;2023-05-09T11:26:45;3.90;;;3.70;;
17564;SDS011;62994;52.126;5.596;2023-05-09T11:29:25;3.65;;;3.45;;
17564;SDS011;62994;52.126;5.596;2023-05-09T11:32:03;4.07;;;3.70;;
17564;SDS011;62994;52.126;5.596;2023-05-09T11:34:32;3.33;;;3.22;;
17564;SDS011;62994;52.126;5.596;2023-05-09T11:37:08;3.83;;;3.60;;
17564;SDS011;62994;52.126;5.596;2023-05-09T11:42:24;3.80;;;3.60;;
17564;SDS011;62994;52.126;5.596;2023-05-09T11:44:52;4.65;;;3.55;;
17564;SDS011;62994;52.126;5.596;2023-05-09T11:47:20;3.85;;;3.60;;
17564;SDS011;62994;52.126;5.596;2023-05-09T11:49:47;3.85;;;3.65;;
17564;SDS011;62994;52.126;5.596;2023-05-09T11:52:15;4.20;;;4.00;;
17564;SDS011;62994;52.126;5.596;2023-05-09T11:54:43;3.53;;;3.22;;
17564;SDS011;62994;52.126;5.596;2023-05-09T11:57:11;3.75;;;3.55;;
17564;SDS011;62994;52.126;5.596;2023-05-09T11:59:43;4.70;;;4.20;;
17564;SDS011;62994;52.126;5.596;2023-05-09T12:02:13;3.97;;;3.78;;
17564;SDS011;62994;52.126;5.596;2023-05-09T12:04:40;4.20;;;4.00;;
17564;SDS011;62994;52.126;5.596;2023-05-09T12:07:10;4.25;;;4.00;;
17564;SDS011;62994;52.126;5.596;2023-05-09T12:09:37;4.53;;;4.32;;
17564;SDS011;62994;52.126;5.596;2023-05-09T12:12:07;4.32;;;4.13;;
17564;SDS011;62994;52.126;5.596;2023-05-09T12:14:36;5.00;;;4.70;;
17564;SDS011;62994;52.126;5.596;2023-05-09T12:17:14;5.40;;;4.97;;
17564;SDS011;62994;52.126;5.596;2023-05-09T12:19:40;5.13;;;4.90;;
17564;SDS011;62994;52.126;5.596;2023-05-09T12:22:17;4.85;;;4.65;;
17564;SDS011;62994;52.126;5.596;2023-05-09T12:24:47;6.05;;;5.57;;
17564;SDS011;62994;52.126;5.596;2023-05-09T12:27:14;5.68;;;5.38;;
17564;SDS011;62994;52.126;5.596;2023-05-09T12:29:50;5.47;;;5.18;;
17564;SDS011;62994;52.126;5.596;2023-05-09T12:32:17;5.82;;;5.30;;
17564;SDS011;62994;52.126;5.596;2023-05-09T12:34:44;5.53;;;5.22;;
17564;SDS011;62994;52.126;5.596;2023-05-09T12:37:13;4.97;;;4.57;;
17564;SDS011;62994;52.126;5.596;2023-05-09T12:39:41;4.50;;;4.30;;
17564;SDS011;62994;52.126;5.596;2023-05-09T12:42:14;7.47;;;4.47;;
17564;SDS011;62994;52.126;5.596;2023-05-09T12:44:43;4.60;;;4.40;;
17564;SDS011;62994;52.126;5.596;2023-05-09T12:47:15;4.70;;;4.30;;
17564;SDS011;62994;52.126;5.596;2023-05-09T12:49:48;4.60;;;4.40;;
17564;SDS011;62994;52.126;5.596;2023-05-09T12:52:16;4.40;;;4.20;;
17564;SDS011;62994;52.126;5.596;2023-05-09T12:54:45;4.60;;;4.40;;
17564;SDS011;62994;52.126;5.596;2023-05-09T12:57:20;4.70;;;4.50;;
17564;SDS011;62994;52.126;5.596;2023-05-09T12:59:47;5.57;;;5.28;;
17564;SDS011;62994;52.126;5.596;2023-05-09T13:02:16;4.70;;;4.50;;
17564;SDS011;62994;52.126;5.596;2023-05-09T13:04:43;4.75;;;4.45;;
17564;SDS011;62994;52.126;5.596;2023-05-09T13:07:15;4.50;;;4.30;;
17564;SDS011;62994;52.126;5.596;2023-05-09T13:09:54;3.85;;;3.67;;
17564;SDS011;62994;52.126;5.596;2023-05-09T13:12:31;3.97;;;3.78;;
17564;SDS011;62994;52.126;5.596;2023-05-09T13:14:58;4.07;;;3.88;;
17564;SDS011;62994;52.126;5.596;2023-05-09T13:17:31;4.20;;;4.00;;
17564;SDS011;62994;52.126;5.596;2023-05-09T13:19:59;3.60;;;3.50;;
17564;SDS011;62994;52.126;5.596;2023-05-09T13:22:29;3.42;;;3.30;;
17564;SDS011;62994;52.126;5.596;2023-05-09T13:24:56;3.00;;;2.90;;
17564;SDS011;62994;52.126;5.596;2023-05-09T13:27:31;3.22;;;3.13;;
17564;SDS011;62994;52.126;5.596;2023-05-09T13:30:00;3.47;;;3.17;;
17564;SDS011;62994;52.126;5.596;2023-05-09T13:32:27;3.03;;;2.92;;
17564;SDS011;62994;52.126;5.596;2023-05-09T13:35:00;2.70;;;2.60;;
17564;SDS011;62994;52.126;5.596;2023-05-09T13:37:31;2.95;;;2.70;;
17564;SDS011;62994;52.126;5.596;2023-05-09T13:39:58;3.35;;;3.15;;
17564;SDS011;62994;52.126;5.596;2023-05-09T13:42:26;3.00;;;2.90;;
17564;SDS011;62994;52.126;5.596;2023-05-09T13:44:53;3.00;;;2.90;;
17564;SDS011;62994;52.126;5.596;2023-05-09T13:47:20;3.60;;;3.42;;
17564;SDS011;62994;52.126;5.596;2023-05-09T13:49:49;3.20;;;3.00;;
17564;SDS011;62994;52.126;5.596;2023-05-09T13:52:16;3.47;;;3.28;;
17564;SDS011;62994;52.126;5.596;2023-05-09T13:54:50;3.45;;;3.28;;
17564;SDS011;62994;52.126;5.596;2023-05-09T13:57:18;3.40;;;3.20;;
17564;SDS011;62994;52.126;5.596;2023-05-09T13:59:45;3.20;;;2.88;;
17564;SDS011;62994;52.126;5.596;2023-05-09T14:02:17;3.13;;;2.92;;
17564;SDS011;62994;52.126;5.596;2023-05-09T14:04:49;3.53;;;3.35;;
17564;SDS011;62994;52.126;5.596;2023-05-09T14:07:16;3.08;;;2.97;;
17564;SDS011;62994;52.126;5.596;2023-05-09T14:09:47;3.65;;;3.45;;
17564;SDS011;62994;52.126;5.596;2023-05-09T14:12:16;3.10;;;3.00;;
17564;SDS011;62994;52.126;5.596;2023-05-09T14:14:47;4.45;;;3.72;;
17564;SDS011;62994;52.126;5.596;2023-05-09T14:17:14;3.50;;;3.28;;
17564;SDS011;62994;52.126;5.596;2023-05-09T14:19:41;3.17;;;3.08;;
17564;SDS011;62994;52.126;5.596;2023-05-09T14:22:14;3.30;;;3.20;;
17564;SDS011;62994;52.126;5.596;2023-05-09T14:24:53;3.20;;;3.10;;
17564;SDS011;62994;52.126;5.596;2023-05-09T14:27:21;3.30;;;3.20;;
17564;SDS011;62994;52.126;5.596;2023-05-09T14:29:49;3.47;;;3.35;;
17564;SDS011;62994;52.126;5.596;2023-05-09T14:32:17;3.75;;;3.55;;
17564;SDS011;62994;52.126;5.596;2023-05-09T14:34:45;3.55;;;3.35;;
17564;SDS011;62994;52.126;5.596;2023-05-09T14:37:20;3.53;;;3.42;;
17564;SDS011;62994;52.126;5.596;2023-05-09T14:39:47;4.32;;;3.97;;
17564;SDS011;62994;52.126;5.596;2023-05-09T14:42:19;3.78;;;3.45;;
17564;SDS011;62994;52.126;5.596;2023-05-09T14:44:51;4.45;;;3.47;;
17564;SDS011;62994;52.126;5.596;2023-05-09T14:47:18;4.18;;;3.78;;
17564;SDS011;62994;52.126;5.596;2023-05-09T14:49:46;4.15;;;3.80;;
17564;SDS011;62994;52.126;5.596;2023-05-09T14:52:13;4.10;;;3.90;;
17564;SDS011;62994;52.126;5.596;2023-05-09T14:54:43;4.07;;;3.90;;